sensor_id;sensor_type;location;lat;lon;timestamp;P1;durP1;ratioP1;P2;durP2;ratioP2
20956;SDS011;10637;47.970;7.830;2023-08-01T00:00:26;10.83;;;4.33;;
20956;SDS011;10637;47.970;7.830;2023-08-01T00:05:28;10.17;;;4.00;;
20956;SDS011;10637;47.970;7.830;2023-08-01T00:10:30;10.60;;;4.67;;
20956;SDS011;10637;47.970;7.830;2023-08-01T00:15:32;10.77;;;4.40;;
20956;SDS011;10637;47.970;7.830;2023-08-01T00:20:33;11.23;;;4.50;;
20956;SDS011;10637;47.970;7.830;2023-08-01T00:25:35;12.07;;;4.73;;
20956;SDS011;10637;47.970;7.830;2023-08-01T00:30:37;11.77;;;4.30;;
20956;SDS011;10637;47.970;7.830;2023-08-01T00:35:41;12.17;;;4.37;;
20956;SDS011;10637;47.970;7.830;2023-08-01T00:40:45;10.77;;;4.40;;
20956;SDS011;10637;47.970;7.830;2023-08-01T00:45:48;12.10;;;4.33;;
20956;SDS011;10637;47.970;7.830;2023-08-01T00:50:50;9.57;;;4.30;;
20956;SDS011;10637;47.970;7.830;2023-08-01T00:55:52;11.10;;;4.10;;
20956;SDS011;10637;47.970;7.830;2023-08-01T01:00:58;10.00;;;4.10;;
20956;SDS011;10637;47.970;7.830;2023-08-01T01:06:05;10.40;;;4.13;;
20956;SDS011;10637;47.970;7.830;2023-08-01T01:11:14;12.87;;;4.53;;
20956;SDS011;10637;47.970;7.830;2023-08-01T01:16:16;13.03;;;4.50;;
20956;SDS011;10637;47.970;7.830;2023-08-01T01:21:18;10.73;;;4.20;;
20956;SDS011;10637;47.970;7.830;2023-08-01T01:26:20;11.97;;;4.30;;
20956;SDS011;10637;47.970;7.830;2023-08-01T01:31:22;12.47;;;4.53;;
20956;SDS011;10637;47.970;7.830;2023-08-01T01:36:24;13.60;;;4.63;;
20956;SDS011;10637;47.970;7.830;2023-08-01T01:41:26;9.87;;;4.00;;
20956;SDS011;10637;47.970;7.830;2023-08-01T01:46:28;9.33;;;3.77;;
20956;SDS011;10637;47.970;7.830;2023-08-01T01:51:30;10.67;;;4.47;;
20956;SDS011;10637;47.970;7.830;2023-08-01T01:56:35;11.43;;;3.97;;
20956;SDS011;10637;47.970;7.830;2023-08-01T02:01:37;10.90;;;4.03;;
20956;SDS011;10637;47.970;7.830;2023-08-01T02:06:39;11.37;;;3.90;;
20956;SDS011;10637;47.970;7.830;2023-08-01T02:11:41;11.20;;;3.90;;
20956;SDS011;10637;47.970;7.830;2023-08-01T02:16:43;11.57;;;3.90;;
20956;SDS011;10637;47.970;7.830;2023-08-01T02:21:45;11.70;;;4.20;;
20956;SDS011;10637;47.970;7.830;2023-08-01T02:26:49;11.27;;;4.00;;
20956;SDS011;10637;47.970;7.830;2023-08-01T02:31:51;11.73;;;3.80;;
20956;SDS011;10637;47.970;7.830;2023-08-01T02:36:53;11.47;;;3.87;;
20956;SDS011;10637;47.970;7.830;2023-08-01T02:41:55;10.07;;;4.00;;
20956;SDS011;10637;47.970;7.830;2023-08-01T02:46:57;13.73;;;4.23;;
20956;SDS011;10637;47.970;7.830;2023-08-01T02:51:59;14.27;;;4.20;;
20956;SDS011;10637;47.970;7.830;2023-08-01T02:57:01;13.30;;;4.07;;
20956;SDS011;10637;47.970;7.830;2023-08-01T03:02:02;14.37;;;4.63;;
20956;SDS011;10637;47.970;7.830;2023-08-01T03:07:04;11.87;;;4.10;;
20956;SDS011;10637;47.970;7.830;2023-08-01T03:12:06;12.97;;;4.03;;
20956;SDS011;10637;47.970;7.830;2023-08-01T03:17:09;13.63;;;3.97;;
20956;SDS011;10637;47.970;7.830;2023-08-01T03:22:11;11.70;;;4.47;;
20956;SDS011;10637;47.970;7.830;2023-08-01T03:27:16;12.23;;;4.80;;
20956;SDS011;10637;47.970;7.830;2023-08-01T03:32:18;11.57;;;4.00;;
20956;SDS011;10637;47.970;7.830;2023-08-01T03:37:22;13.57;;;4.40;;
20956;SDS011;10637;47.970;7.830;2023-08-01T03:42:23;13.20;;;4.50;;
20956;SDS011;10637;47.970;7.830;2023-08-01T03:47:25;12.40;;;4.40;;
20956;SDS011;10637;47.970;7.830;2023-08-01T03:52:27;13.43;;;4.27;;
20956;SDS011;10637;47.970;7.830;2023-08-01T03:57:30;12.23;;;4.67;;
20956;SDS011;10637;47.970;7.830;2023-08-01T04:02:35;13.27;;;4.87;;
20956;SDS011;10637;47.970;7.830;2023-08-01T04:07:37;11.53;;;4.43;;
20956;SDS011;10637;47.970;7.830;2023-08-01T04:12:39;12.03;;;4.23;;
20956;SDS011;10637;47.970;7.830;2023-08-01T04:17:43;15.53;;;4.80;;
20956;SDS011;10637;47.970;7.830;2023-08-01T04:22:47;16.53;;;5.37;;
20956;SDS011;10637;47.970;7.830;2023-08-01T04:27:49;13.23;;;4.70;;
20956;SDS011;10637;47.970;7.830;2023-08-01T04:32:51;13.70;;;4.93;;
20956;SDS011;10637;47.970;7.830;2023-08-01T04:37:53;12.87;;;5.20;;
20956;SDS011;10637;47.970;7.830;2023-08-01T04:42:55;12.10;;;4.47;;
20956;SDS011;10637;47.970;7.830;2023-08-01T04:47:57;14.90;;;4.67;;
20956;SDS011;10637;47.970;7.830;2023-08-01T04:52:59;12.80;;;4.93;;
20956;SDS011;10637;47.970;7.830;2023-08-01T04:58:01;16.70;;;4.90;;
20956;SDS011;10637;47.970;7.830;2023-08-01T05:03:06;13.20;;;4.93;;
20956;SDS011;10637;47.970;7.830;2023-08-01T05:08:08;14.87;;;4.60;;
20956;SDS011;10637;47.970;7.830;2023-08-01T05:13:10;11.30;;;5.23;;
20956;SDS011;10637;47.970;7.830;2023-08-01T05:18:12;11.10;;;4.90;;
20956;SDS011;10637;47.970;7.830;2023-08-01T05:23:14;14.23;;;5.20;;
20956;SDS011;10637;47.970;7.830;2023-08-01T05:28:15;13.27;;;5.50;;
20956;SDS011;10637;47.970;7.830;2023-08-01T05:33:17;15.43;;;6.60;;
20956;SDS011;10637;47.970;7.830;2023-08-01T05:38:19;15.30;;;6.70;;
20956;SDS011;10637;47.970;7.830;2023-08-01T05:43:28;13.87;;;6.37;;
20956;SDS011;10637;47.970;7.830;2023-08-01T05:48:29;15.87;;;5.93;;
20956;SDS011;10637;47.970;7.830;2023-08-01T05:53:31;11.87;;;5.13;;
20956;SDS011;10637;47.970;7.830;2023-08-01T05:58:33;11.83;;;4.90;;
20956;SDS011;10637;47.970;7.830;2023-08-01T06:03:35;13.17;;;5.23;;
20956;SDS011;10637;47.970;7.830;2023-08-01T06:08:37;12.57;;;5.00;;
20956;SDS011;10637;47.970;7.830;2023-08-01T06:13:39;14.23;;;6.03;;
20956;SDS011;10637;47.970;7.830;2023-08-01T06:18:41;13.67;;;5.77;;
20956;SDS011;10637;47.970;7.830;2023-08-01T06:23:47;12.20;;;5.47;;
20956;SDS011;10637;47.970;7.830;2023-08-01T06:28:49;14.43;;;6.33;;
20956;SDS011;10637;47.970;7.830;2023-08-01T06:33:51;15.40;;;6.53;;
20956;SDS011;10637;47.970;7.830;2023-08-01T06:38:52;12.93;;;5.67;;
20956;SDS011;10637;47.970;7.830;2023-08-01T06:43:54;10.60;;;5.13;;
20956;SDS011;10637;47.970;7.830;2023-08-01T06:48:56;13.23;;;4.70;;
20956;SDS011;10637;47.970;7.830;2023-08-01T06:53:59;12.07;;;5.07;;
20956;SDS011;10637;47.970;7.830;2023-08-01T06:59:03;12.73;;;5.00;;
20956;SDS011;10637;47.970;7.830;2023-08-01T07:04:08;11.33;;;4.50;;
20956;SDS011;10637;47.970;7.830;2023-08-01T07:09:11;11.53;;;4.53;;
20956;SDS011;10637;47.970;7.830;2023-08-01T07:14:13;11.50;;;4.53;;
20956;SDS011;10637;47.970;7.830;2023-08-01T07:19:14;12.67;;;5.93;;
20956;SDS011;10637;47.970;7.830;2023-08-01T07:24:16;11.97;;;5.33;;
20956;SDS011;10637;47.970;7.830;2023-08-01T07:29:20;13.23;;;5.47;;
20956;SDS011;10637;47.970;7.830;2023-08-01T07:34:22;10.23;;;4.30;;
20956;SDS011;10637;47.970;7.830;2023-08-01T07:39:24;21.97;;;9.63;;
20956;SDS011;10637;47.970;7.830;2023-08-01T07:44:26;16.13;;;6.73;;
20956;SDS011;10637;47.970;7.830;2023-08-01T07:49:28;17.70;;;7.90;;
20956;SDS011;10637;47.970;7.830;2023-08-01T07:54:30;21.33;;;10.50;;
20956;SDS011;10637;47.970;7.830;2023-08-01T07:59:32;15.13;;;6.07;;
20956;SDS011;10637;47.970;7.830;2023-08-01T08:04:34;13.37;;;6.23;;
20956;SDS011;10637;47.970;7.830;2023-08-01T08:09:38;16.73;;;7.40;;
20956;SDS011;10637;47.970;7.830;2023-08-01T08:14:40;17.37;;;6.00;;
20956;SDS011;10637;47.970;7.830;2023-08-01T08:19:42;19.47;;;9.50;;
20956;SDS011;10637;47.970;7.830;2023-08-01T08:24:44;17.27;;;7.53;;
20956;SDS011;10637;47.970;7.830;2023-08-01T08:29:45;17.60;;;7.20;;
20956;SDS011;10637;47.970;7.830;2023-08-01T08:34:47;18.93;;;7.80;;
20956;SDS011;10637;47.970;7.830;2023-08-01T08:39:49;12.60;;;5.47;;
20956;SDS011;10637;47.970;7.830;2023-08-01T08:44:54;12.00;;;4.83;;
20956;SDS011;10637;47.970;7.830;2023-08-01T08:50:00;9.43;;;4.10;;
20956;SDS011;10637;47.970;7.830;2023-08-01T08:55:02;11.20;;;4.60;;
20956;SDS011;10637;47.970;7.830;2023-08-01T09:00:05;10.37;;;4.57;;
20956;SDS011;10637;47.970;7.830;2023-08-01T09:05:07;11.43;;;4.30;;
20956;SDS011;10637;47.970;7.830;2023-08-01T09:10:09;10.77;;;3.97;;
20956;SDS011;10637;47.970;7.830;2023-08-01T09:15:12;8.67;;;3.50;;
20956;SDS011;10637;47.970;7.830;2023-08-01T09:20:15;13.87;;;4.13;;
20956;SDS011;10637;47.970;7.830;2023-08-01T09:25:17;11.13;;;4.33;;
20956;SDS011;10637;47.970;7.830;2023-08-01T09:30:19;9.60;;;3.47;;
20956;SDS011;10637;47.970;7.830;2023-08-01T09:35:21;8.67;;;3.30;;
20956;SDS011;10637;47.970;7.830;2023-08-01T09:40:24;12.70;;;4.77;;
20956;SDS011;10637;47.970;7.830;2023-08-01T09:45:25;9.37;;;3.63;;
20956;SDS011;10637;47.970;7.830;2023-08-01T09:50:27;10.53;;;3.80;;
20956;SDS011;10637;47.970;7.830;2023-08-01T09:55:33;10.97;;;3.57;;
20956;SDS011;10637;47.970;7.830;2023-08-01T10:00:36;9.50;;;3.10;;
20956;SDS011;10637;47.970;7.830;2023-08-01T10:05:38;8.90;;;3.27;;
20956;SDS011;10637;47.970;7.830;2023-08-01T10:10:42;8.27;;;2.93;;
20956;SDS011;10637;47.970;7.830;2023-08-01T10:15:44;10.10;;;3.20;;
20956;SDS011;10637;47.970;7.830;2023-08-01T10:20:54;10.47;;;3.87;;
20956;SDS011;10637;47.970;7.830;2023-08-01T10:25:57;10.53;;;4.07;;
20956;SDS011;10637;47.970;7.830;2023-08-01T10:31:11;9.10;;;3.17;;
20956;SDS011;10637;47.970;7.830;2023-08-01T10:36:18;7.50;;;3.00;;
20956;SDS011;10637;47.970;7.830;2023-08-01T10:41:28;8.47;;;3.40;;
20956;SDS011;10637;47.970;7.830;2023-08-01T10:46:44;8.07;;;3.07;;
20956;SDS011;10637;47.970;7.830;2023-08-01T10:52:17;8.67;;;3.00;;
20956;SDS011;10637;47.970;7.830;2023-08-01T10:57:20;8.27;;;2.83;;
20956;SDS011;10637;47.970;7.830;2023-08-01T11:02:23;8.10;;;3.00;;
20956;SDS011;10637;47.970;7.830;2023-08-01T11:07:27;7.17;;;2.50;;
20956;SDS011;10637;47.970;7.830;2023-08-01T11:12:30;9.03;;;2.83;;
20956;SDS011;10637;47.970;7.830;2023-08-01T11:17:35;8.17;;;2.50;;
20956;SDS011;10637;47.970;7.830;2023-08-01T11:22:50;8.90;;;2.27;;
20956;SDS011;10637;47.970;7.830;2023-08-01T11:27:57;7.93;;;2.57;;
20956;SDS011;10637;47.970;7.830;2023-08-01T11:33:02;7.97;;;2.50;;
20956;SDS011;10637;47.970;7.830;2023-08-01T11:38:18;8.33;;;2.70;;
20956;SDS011;10637;47.970;7.830;2023-08-01T11:43:20;7.10;;;2.30;;
20956;SDS011;10637;47.970;7.830;2023-08-01T11:48:22;7.00;;;2.40;;
20956;SDS011;10637;47.970;7.830;2023-08-01T11:53:25;7.00;;;2.10;;
20956;SDS011;10637;47.970;7.830;2023-08-01T11:58:28;7.53;;;2.20;;
20956;SDS011;10637;47.970;7.830;2023-08-01T12:03:31;5.50;;;1.67;;
20956;SDS011;10637;47.970;7.830;2023-08-01T12:08:37;5.47;;;1.53;;
20956;SDS011;10637;47.970;7.830;2023-08-01T12:13:39;5.30;;;1.60;;
20956;SDS011;10637;47.970;7.830;2023-08-01T12:18:41;5.67;;;1.73;;
20956;SDS011;10637;47.970;7.830;2023-08-01T12:24:00;4.97;;;1.50;;
20956;SDS011;10637;47.970;7.830;2023-08-01T12:29:03;6.17;;;1.60;;
20956;SDS011;10637;47.970;7.830;2023-08-01T12:34:04;4.97;;;1.57;;
20956;SDS011;10637;47.970;7.830;2023-08-01T12:39:06;5.30;;;1.57;;
20956;SDS011;10637;47.970;7.830;2023-08-01T12:44:12;5.23;;;1.50;;
20956;SDS011;10637;47.970;7.830;2023-08-01T12:49:17;5.67;;;1.50;;
20956;SDS011;10637;47.970;7.830;2023-08-01T12:54:20;3.87;;;1.30;;
20956;SDS011;10637;47.970;7.830;2023-08-01T12:59:31;4.27;;;1.30;;
20956;SDS011;10637;47.970;7.830;2023-08-01T13:04:33;4.30;;;1.37;;
20956;SDS011;10637;47.970;7.830;2023-08-01T13:09:37;5.33;;;1.60;;
20956;SDS011;10637;47.970;7.830;2023-08-01T13:14:39;6.43;;;1.40;;
20956;SDS011;10637;47.970;7.830;2023-08-01T13:19:40;5.10;;;1.43;;
20956;SDS011;10637;47.970;7.830;2023-08-01T13:24:42;4.83;;;1.40;;
20956;SDS011;10637;47.970;7.830;2023-08-01T13:29:46;5.70;;;1.40;;
20956;SDS011;10637;47.970;7.830;2023-08-01T13:34:51;5.60;;;1.50;;
20956;SDS011;10637;47.970;7.830;2023-08-01T13:39:53;4.53;;;1.30;;
20956;SDS011;10637;47.970;7.830;2023-08-01T13:44:57;3.73;;;1.10;;
20956;SDS011;10637;47.970;7.830;2023-08-01T13:50:00;4.37;;;1.43;;
20956;SDS011;10637;47.970;7.830;2023-08-01T13:55:02;5.50;;;1.40;;
20956;SDS011;10637;47.970;7.830;2023-08-01T14:00:05;4.87;;;1.53;;
20956;SDS011;10637;47.970;7.830;2023-08-01T14:05:14;6.77;;;1.50;;
20956;SDS011;10637;47.970;7.830;2023-08-01T14:10:16;4.93;;;1.40;;
20956;SDS011;10637;47.970;7.830;2023-08-01T14:15:17;5.47;;;1.63;;
20956;SDS011;10637;47.970;7.830;2023-08-01T14:20:19;5.23;;;1.40;;
20956;SDS011;10637;47.970;7.830;2023-08-01T14:25:21;5.57;;;1.50;;
20956;SDS011;10637;47.970;7.830;2023-08-01T14:30:23;6.17;;;1.40;;
20956;SDS011;10637;47.970;7.830;2023-08-01T14:35:25;6.70;;;1.80;;
20956;SDS011;10637;47.970;7.830;2023-08-01T14:40:27;6.80;;;1.70;;
20956;SDS011;10637;47.970;7.830;2023-08-01T14:45:29;5.83;;;1.60;;
20956;SDS011;10637;47.970;7.830;2023-08-01T14:50:31;5.57;;;1.57;;
20956;SDS011;10637;47.970;7.830;2023-08-01T14:55:32;5.20;;;1.60;;
20956;SDS011;10637;47.970;7.830;2023-08-01T15:00:35;5.00;;;1.60;;
20956;SDS011;10637;47.970;7.830;2023-08-01T15:05:37;5.97;;;1.77;;
20956;SDS011;10637;47.970;7.830;2023-08-01T15:10:39;6.60;;;1.73;;
20956;SDS011;10637;47.970;7.830;2023-08-01T15:15:41;5.67;;;1.77;;
20956;SDS011;10637;47.970;7.830;2023-08-01T15:20:43;6.03;;;1.70;;
20956;SDS011;10637;47.970;7.830;2023-08-01T15:25:56;4.20;;;1.40;;
20956;SDS011;10637;47.970;7.830;2023-08-01T15:31:02;5.47;;;1.50;;
20956;SDS011;10637;47.970;7.830;2023-08-01T15:36:07;4.80;;;1.60;;
20956;SDS011;10637;47.970;7.830;2023-08-01T15:41:09;5.70;;;1.50;;
20956;SDS011;10637;47.970;7.830;2023-08-01T15:46:11;5.63;;;1.67;;
20956;SDS011;10637;47.970;7.830;2023-08-01T15:51:13;5.60;;;1.60;;
20956;SDS011;10637;47.970;7.830;2023-08-01T15:56:15;5.93;;;1.70;;
20956;SDS011;10637;47.970;7.830;2023-08-01T16:01:17;6.13;;;1.50;;
20956;SDS011;10637;47.970;7.830;2023-08-01T16:06:22;5.17;;;1.60;;
20956;SDS011;10637;47.970;7.830;2023-08-01T16:11:26;5.43;;;1.63;;
20956;SDS011;10637;47.970;7.830;2023-08-01T16:16:28;5.13;;;1.50;;
20956;SDS011;10637;47.970;7.830;2023-08-01T16:21:30;5.33;;;1.60;;
20956;SDS011;10637;47.970;7.830;2023-08-01T16:26:32;5.47;;;1.60;;
20956;SDS011;10637;47.970;7.830;2023-08-01T16:31:34;8.17;;;1.80;;
20956;SDS011;10637;47.970;7.830;2023-08-01T16:36:36;5.37;;;1.60;;
20956;SDS011;10637;47.970;7.830;2023-08-01T16:41:37;5.33;;;1.63;;
20956;SDS011;10637;47.970;7.830;2023-08-01T16:46:42;5.57;;;1.57;;
20956;SDS011;10637;47.970;7.830;2023-08-01T16:51:43;5.67;;;1.60;;
20956;SDS011;10637;47.970;7.830;2023-08-01T16:56:45;5.57;;;1.80;;
20956;SDS011;10637;47.970;7.830;2023-08-01T17:01:47;6.40;;;1.50;;
20956;SDS011;10637;47.970;7.830;2023-08-01T17:06:49;5.43;;;1.53;;
20956;SDS011;10637;47.970;7.830;2023-08-01T17:11:51;5.47;;;1.70;;
20956;SDS011;10637;47.970;7.830;2023-08-01T17:16:53;9.57;;;2.10;;
20956;SDS011;10637;47.970;7.830;2023-08-01T17:21:54;7.10;;;1.90;;
20956;SDS011;10637;47.970;7.830;2023-08-01T17:26:56;7.60;;;2.50;;
20956;SDS011;10637;47.970;7.830;2023-08-01T17:32:08;6.90;;;1.87;;
20956;SDS011;10637;47.970;7.830;2023-08-01T17:37:10;8.10;;;2.40;;
20956;SDS011;10637;47.970;7.830;2023-08-01T17:42:12;7.13;;;2.07;;
20956;SDS011;10637;47.970;7.830;2023-08-01T17:47:14;12.73;;;4.30;;
20956;SDS011;10637;47.970;7.830;2023-08-01T17:52:16;7.30;;;2.10;;
20956;SDS011;10637;47.970;7.830;2023-08-01T17:57:20;10.27;;;2.90;;
20956;SDS011;10637;47.970;7.830;2023-08-01T18:02:22;14.03;;;4.73;;
20956;SDS011;10637;47.970;7.830;2023-08-01T18:07:24;12.03;;;4.47;;
20956;SDS011;10637;47.970;7.830;2023-08-01T18:12:25;11.00;;;3.47;;
20956;SDS011;10637;47.970;7.830;2023-08-01T18:17:27;12.57;;;4.30;;
20956;SDS011;10637;47.970;7.830;2023-08-01T18:22:29;15.73;;;5.33;;
20956;SDS011;10637;47.970;7.830;2023-08-01T18:27:31;12.33;;;3.77;;
20956;SDS011;10637;47.970;7.830;2023-08-01T18:32:33;14.37;;;5.30;;
20956;SDS011;10637;47.970;7.830;2023-08-01T18:37:35;14.57;;;5.77;;
20956;SDS011;10637;47.970;7.830;2023-08-01T18:42:37;10.07;;;2.93;;
20956;SDS011;10637;47.970;7.830;2023-08-01T18:47:39;8.90;;;2.30;;
20956;SDS011;10637;47.970;7.830;2023-08-01T18:52:45;14.97;;;5.10;;
20956;SDS011;10637;47.970;7.830;2023-08-01T18:57:50;12.93;;;4.40;;
20956;SDS011;10637;47.970;7.830;2023-08-01T19:02:59;9.17;;;2.93;;
20956;SDS011;10637;47.970;7.830;2023-08-01T19:08:01;12.37;;;3.90;;
20956;SDS011;10637;47.970;7.830;2023-08-01T19:13:05;12.60;;;4.33;;
20956;SDS011;10637;47.970;7.830;2023-08-01T19:18:07;10.90;;;3.70;;
20956;SDS011;10637;47.970;7.830;2023-08-01T19:23:13;14.60;;;5.27;;
20956;SDS011;10637;47.970;7.830;2023-08-01T19:28:15;13.83;;;4.70;;
20956;SDS011;10637;47.970;7.830;2023-08-01T19:33:19;21.37;;;8.23;;
20956;SDS011;10637;47.970;7.830;2023-08-01T19:38:20;17.70;;;6.10;;
20956;SDS011;10637;47.970;7.830;2023-08-01T19:43:22;15.13;;;4.67;;
20956;SDS011;10637;47.970;7.830;2023-08-01T19:48:24;14.17;;;4.07;;
20956;SDS011;10637;47.970;7.830;2023-08-01T19:53:31;8.50;;;2.70;;
20956;SDS011;10637;47.970;7.830;2023-08-01T19:58:33;13.83;;;4.20;;
20956;SDS011;10637;47.970;7.830;2023-08-01T20:03:35;8.07;;;2.50;;
20956;SDS011;10637;47.970;7.830;2023-08-01T20:08:37;13.97;;;4.03;;
20956;SDS011;10637;47.970;7.830;2023-08-01T20:13:39;10.33;;;2.60;;
20956;SDS011;10637;47.970;7.830;2023-08-01T20:18:41;8.47;;;2.50;;
20956;SDS011;10637;47.970;7.830;2023-08-01T20:23:42;6.90;;;2.20;;
20956;SDS011;10637;47.970;7.830;2023-08-01T20:28:48;8.77;;;2.30;;
20956;SDS011;10637;47.970;7.830;2023-08-01T20:33:53;10.63;;;3.43;;
20956;SDS011;10637;47.970;7.830;2023-08-01T20:38:54;9.27;;;2.37;;
20956;SDS011;10637;47.970;7.830;2023-08-01T20:43:57;8.90;;;2.47;;
20956;SDS011;10637;47.970;7.830;2023-08-01T20:48:58;9.33;;;2.40;;
20956;SDS011;10637;47.970;7.830;2023-08-01T20:54:08;7.70;;;2.30;;
20956;SDS011;10637;47.970;7.830;2023-08-01T20:59:13;11.40;;;3.00;;
20956;SDS011;10637;47.970;7.830;2023-08-01T21:04:16;11.20;;;3.10;;
20956;SDS011;10637;47.970;7.830;2023-08-01T21:09:23;8.33;;;2.50;;
20956;SDS011;10637;47.970;7.830;2023-08-01T21:14:25;10.67;;;3.00;;
20956;SDS011;10637;47.970;7.830;2023-08-01T21:19:27;9.23;;;2.33;;
20956;SDS011;10637;47.970;7.830;2023-08-01T21:24:29;9.60;;;2.90;;
20956;SDS011;10637;47.970;7.830;2023-08-01T21:29:31;7.03;;;2.60;;
20956;SDS011;10637;47.970;7.830;2023-08-01T21:34:39;9.07;;;2.77;;
20956;SDS011;10637;47.970;7.830;2023-08-01T21:39:40;10.80;;;2.93;;
20956;SDS011;10637;47.970;7.830;2023-08-01T21:44:42;9.67;;;2.60;;
20956;SDS011;10637;47.970;7.830;2023-08-01T21:49:44;8.23;;;2.47;;
20956;SDS011;10637;47.970;7.830;2023-08-01T21:54:46;8.37;;;3.10;;
20956;SDS011;10637;47.970;7.830;2023-08-01T21:59:48;8.40;;;2.63;;
20956;SDS011;10637;47.970;7.830;2023-08-01T22:04:50;9.93;;;2.53;;
20956;SDS011;10637;47.970;7.830;2023-08-01T22:09:55;9.53;;;2.53;;
20956;SDS011;10637;47.970;7.830;2023-08-01T22:15:00;9.00;;;2.50;;
20956;SDS011;10637;47.970;7.830;2023-08-01T22:20:02;8.97;;;2.50;;
20956;SDS011;10637;47.970;7.830;2023-08-01T22:25:06;7.83;;;2.67;;
20956;SDS011;10637;47.970;7.830;2023-08-01T22:30:09;12.07;;;2.90;;
20956;SDS011;10637;47.970;7.830;2023-08-01T22:35:14;6.67;;;2.17;;
20956;SDS011;10637;47.970;7.830;2023-08-01T22:40:16;7.77;;;2.20;;
20956;SDS011;10637;47.970;7.830;2023-08-01T22:45:18;7.53;;;2.30;;
20956;SDS011;10637;47.970;7.830;2023-08-01T22:50:20;12.57;;;3.70;;
20956;SDS011;10637;47.970;7.830;2023-08-01T22:55:23;10.23;;;3.37;;
20956;SDS011;10637;47.970;7.830;2023-08-01T23:00:26;8.67;;;2.90;;
20956;SDS011;10637;47.970;7.830;2023-08-01T23:05:34;9.80;;;2.83;;
20956;SDS011;10637;47.970;7.830;2023-08-01T23:10:36;11.67;;;3.40;;
20956;SDS011;10637;47.970;7.830;2023-08-01T23:15:45;12.57;;;3.10;;
20956;SDS011;10637;47.970;7.830;2023-08-01T23:20:47;11.17;;;3.00;;
20956;SDS011;10637;47.970;7.830;2023-08-01T23:26:08;8.87;;;2.80;;
20956;SDS011;10637;47.970;7.830;2023-08-01T23:31:10;8.03;;;2.37;;
20956;SDS011;10637;47.970;7.830;2023-08-01T23:36:19;8.30;;;2.80;;
20956;SDS011;10637;47.970;7.830;2023-08-01T23:41:21;10.53;;;2.70;;
20956;SDS011;10637;47.970;7.830;2023-08-01T23:46:24;10.23;;;2.70;;
20956;SDS011;10637;47.970;7.830;2023-08-01T23:51:26;11.33;;;3.60;;
20956;SDS011;10637;47.970;7.830;2023-08-01T23:56:35;13.83;;;3.63;;
